• Join FlightAware (Why Join?)
  • Login
  • US Flag GB Flag 
15:55 EST


 

Airport Tracker/Info


-or-


 

Live Flight TrackerFlight Track Log ✈ SWA720 ✈ 20-Apr-2013 ✈ KPHX - KSAN

Flight Track Log - Related Links

Times and Time Zones

All times are in EDT time to prevent confusion due to time zone crossing. See the SWA720 flight status page for this flight to view local times or setup timezone preferences in your user account.

Time Position Orientation Groundspeed Altitude Reporting Facility
EDT Latitude Longitude Course Direction KTS MPH feet Rate Location/Type
23:35 33.4333 -112.0333 239° Southwest 156 180 2,100  Level Phoenix TRACON
23:35 33.4167 -112.0667 239° Southwest 196 226 3,100 1,851 Climbing Phoenix TRACON
23:36 33.4050 -112.1250 257° West 214 246 5,000 2,168 Climbing Albuquerque Center
23:37 33.3581 -112.1919 230° Southwest 266 306 7,400 2,430 Climbing Albuquerque Center
23:38 33.3033 -112.2583 225° Southwest 279 321 9,900 1,686 Climbing Albuquerque Center
23:39 33.2392 -112.3353 225° Southwest 330 380 10,800 1,587 Climbing Albuquerque Center
23:40 33.1672 -112.4217 225° Southwest 362 417 13,100 2,281 Climbing Albuquerque Center
23:42 33.0850 -112.5200 225° Southwest 373 429 15,400 2,016 Climbing Albuquerque Center
23:43 33.0108 -112.6083 225° Southwest 377 434 17,200 1,636 Climbing Albuquerque Center
23:44 32.9506 -112.7119 235° Southwest 387 445 18,700 1,537 Climbing Albuquerque Center
23:45 32.9344 -112.8356 261° West 384 442 20,300 1,884 Climbing Albuquerque Center
23:46 32.9178 -112.9622 261° West 388 447 22,500 2,033 Climbing Albuquerque Center
23:47 32.9008 -113.0906 261° West 393 452 24,400 1,686 Climbing Albuquerque Center
23:48 32.8944 -113.2231 267° West 401 461 25,900 1,736 Climbing Albuquerque Center
23:49 32.8867 -113.3572 266° West 408 470 27,900 2,033 Climbing Albuquerque Center
23:50 32.8794 -113.4889 266° West 405 466 30,000 1,835 Climbing Albuquerque Center
23:51 32.8719 -113.6147 266° West 390 449 31,600 992 Climbing Albuquerque Center
23:52 32.8661 -113.7428 267° West 389 448 32,000 198 Climbing Albuquerque Center
23:53 32.8622 -113.8975 268° West 391 450 32,000  Level Albuquerque Center
23:54 32.8581 -114.0281 268° West 395 455 32,000  Level Albuquerque Center
23:55 32.8533 -114.1575 268° West 393 452 32,000  Level Albuquerque Center
23:55 32.8522 -114.1989 268° West 392 451 32,000 -651 Level Los Angeles Center
23:56 32.8472 -114.3289 267° West 394 453 31,100 -984 Descending Los Angeles Center
23:57 32.8436 -114.4597 268° West 395 455 30,000 -976 Descending Los Angeles Center
23:58 32.8386 -114.5928 267° West 403 464 29,100 -878 Descending Los Angeles Center
23:59 32.8339 -114.7256 268° West 402 463 28,200 -934 Descending Los Angeles Center
00:00 32.8286 -114.8614 267° West 407 468 27,200 -934 Descending Los Angeles Center
00:01 32.8250 -114.9950 268° West 406 467 26,300 -1,033 Descending Los Angeles Center
00:02 32.8169 -115.1586 267° West 411 473 25,100 -1,033 Descending Los Angeles Center
00:03 32.8083 -115.2950 266° West 414 476 24,200 -927 Descending Los Angeles Center
00:04 32.8008 -115.4303 266° West 412 474 23,200 -976 Descending Los Angeles Center
00:05 32.7925 -115.5683 266° West 418 481 22,200 -984 Descending Los Angeles Center
00:06 32.7844 -115.7056 266° West 416 479 21,200 -984 Descending Los Angeles Center
00:07 32.7769 -115.8389 266° West 406 467 20,200 -1,033 Descending Los Angeles Center
00:08 32.7689 -115.9706 266° West 400 460 19,100 -1,623 Descending Los Angeles Center
00:09 32.7611 -116.0975 266° West 385 443 16,900 -2,164 Descending Los Angeles Center
00:10 32.7533 -116.2164 266° West 363 418 14,700 -2,066 Descending Los Angeles Center
00:11 32.7464 -116.3319 266° West 350 403 12,700 -1,967 Descending Los Angeles Center
00:12 32.7392 -116.4442 266° West 338 389 10,700 -1,426 Descending Los Angeles Center
00:13 32.7256 -116.5481 261° West 317 365 9,800 -1,180 Descending Los Angeles Center
00:14 32.7125 -116.6422 261° West 294 338 8,300 -1,426 Descending Los Angeles Center
00:15 32.7006 -116.7339 261° West 286 329 6,900 -1,131 Descending Los Angeles Center
00:16 32.6875 -116.8222 260° West 276 318 6,000 -1,068 Descending Los Angeles Center
00:17 32.6833 -116.9167 267° West 250 288 4,800 -1,077 Descending Southern California TRACON
00:18 32.6833 -116.9833 270° West 223 257 3,900 -1,150 Descending Southern California TRACON
00:19 32.7000 -117.0500 287° West 203 234 2,500 -1,067 Descending Southern California TRACON
00:21 32.7167 -117.1500 281° West 138 159 700 -762 Descending Southern California TRACON
00:22 32.7361 -117.1956 297° West 142 163 100 -522 Descending Los Angeles Center
00:24 32.7333 -117.1833 North  Level FlightAware Approximate
00:31 32.7336 -117.1897 North  Level Estimated